createdAt,value
2017-12-11T00:00:37.902Z,0
2017-12-11T00:01:38.173Z,0
2017-12-11T00:02:38.689Z,0
2017-12-11T00:03:38.118Z,0
2017-12-11T00:04:38.093Z,0
2017-12-11T00:05:38.073Z,0
2017-12-11T00:06:38.341Z,0
2017-12-11T00:07:38.049Z,0
2017-12-11T00:08:38.057Z,0
2017-12-11T00:09:37.742Z,0
2017-12-11T00:10:38.009Z,0
2017-12-11T00:11:38.268Z,0
2017-12-11T00:12:38.242Z,0
2017-12-11T00:13:37.944Z,0
2017-12-11T00:14:38.204Z,0
2017-12-11T00:15:38.201Z,0
2017-12-11T00:16:37.927Z,0
2017-12-11T00:17:38.451Z,0
2017-12-11T00:18:38.137Z,0
2017-12-11T00:19:37.694Z,0
2017-12-11T00:20:38.128Z,0
2017-12-11T00:21:38.093Z,0
2017-12-11T00:22:37.799Z,0
2017-12-11T00:23:38.088Z,0
2017-12-11T00:24:38.058Z,0
2017-12-11T00:25:37.751Z,0
2017-12-11T00:26:38.280Z,0
2017-12-11T00:27:37.716Z,0
2017-12-11T00:28:37.965Z,0
2017-12-11T00:29:38.040Z,0
2017-12-11T00:30:37.676Z,0
2017-12-11T00:31:37.921Z,0
2017-12-11T00:32:37.633Z,0
2017-12-11T00:33:38.165Z,0
2017-12-11T00:34:37.874Z,0
2017-12-11T00:35:37.330Z,0
2017-12-11T00:36:37.574Z,0
2017-12-11T00:37:37.830Z,0
2017-12-11T00:38:37.804Z,0
2017-12-11T00:39:37.512Z,0
2017-12-11T00:40:37.803Z,0
2017-12-11T00:41:37.482Z,0
2017-12-11T00:42:37.463Z,0
2017-12-11T00:43:37.726Z,0
2017-12-11T00:44:37.981Z,0
2017-12-11T00:45:37.154Z,0
2017-12-11T00:46:37.130Z,0
2017-12-11T00:47:37.118Z,0
2017-12-11T00:48:37.378Z,0
2017-12-11T00:49:37.373Z,0
2017-12-11T00:50:37.338Z,0
2017-12-11T00:51:37.319Z,0
2017-12-11T00:52:37.306Z,0
2017-12-11T00:53:37.663Z,0
2017-12-11T00:54:37.860Z,0
2017-12-11T00:55:37.538Z,0
2017-12-11T00:56:37.242Z,0
2017-12-11T00:57:37.258Z,0
2017-12-11T00:58:37.206Z,0
2017-12-11T00:59:37.190Z,0
2017-12-11T01:00:37.731Z,0
2017-12-11T01:01:37.445Z,0
2017-12-11T01:02:37.167Z,0
2017-12-11T01:03:36.876Z,0
2017-12-11T01:04:37.141Z,0
2017-12-11T01:05:37.382Z,0
2017-12-11T01:06:37.347Z,0
2017-12-11T01:07:36.809Z,0
2017-12-11T01:08:37.318Z,0
2017-12-11T01:09:37.307Z,0
2017-12-11T01:10:37.849Z,0
2017-12-11T01:11:37.293Z,0
2017-12-11T01:12:37.007Z,0
2017-12-11T01:13:37.262Z,0
2017-12-11T01:14:37.222Z,0
2017-12-11T01:15:37.762Z,0
2017-12-11T01:16:36.916Z,0
2017-12-11T01:17:37.171Z,0
2017-12-11T01:18:36.886Z,0
2017-12-11T01:19:36.607Z,0
2017-12-11T01:20:37.120Z,0
2017-12-11T01:21:36.840Z,0
2017-12-11T01:22:37.111Z,0
2017-12-11T01:23:36.804Z,0
2017-12-11T01:24:37.069Z,0
2017-12-11T01:25:36.775Z,0
2017-12-11T01:26:37.330Z,0
2017-12-11T01:27:36.740Z,0
2017-12-11T01:28:37.008Z,0
2017-12-11T01:29:36.978Z,0
2017-12-11T01:30:36.693Z,0
2017-12-11T01:31:37.227Z,0
2017-12-11T01:32:36.983Z,0
2017-12-11T01:33:36.665Z,0
2017-12-11T01:34:36.360Z,0
2017-12-11T01:35:37.156Z,0
2017-12-11T01:36:37.224Z,0
2017-12-11T01:37:36.582Z,0
2017-12-11T01:38:36.885Z,0
2017-12-11T01:39:36.547Z,0
2017-12-11T01:40:37.087Z,0
2017-12-11T01:41:36.858Z,0
2017-12-11T01:42:37.072Z,0
2017-12-11T01:43:37.038Z,0
2017-12-11T01:44:36.984Z,0
2017-12-11T01:45:37.374Z,0
2017-12-11T01:46:37.064Z,0
2017-12-11T01:47:36.783Z,0
2017-12-11T01:48:36.415Z,0
2017-12-11T01:49:36.414Z,0
2017-12-11T01:50:36.640Z,0
2017-12-11T01:51:36.629Z,0
2017-12-11T01:52:36.353Z,0
2017-12-11T01:53:36.347Z,0
2017-12-11T01:54:36.306Z,0
2017-12-11T01:55:36.836Z,0
2017-12-11T01:56:36.293Z,0
2017-12-11T01:57:36.293Z,0
2017-12-11T01:58:36.290Z,0
2017-12-11T01:59:36.507Z,0
2017-12-11T02:00:36.481Z,0
2017-12-11T02:01:36.513Z,0
2017-12-11T02:02:36.451Z,0
2017-12-11T02:03:36.445Z,0
2017-12-11T02:04:36.691Z,0
2017-12-11T02:05:36.441Z,0
2017-12-11T02:06:36.140Z,0
2017-12-11T02:07:36.377Z,0
2017-12-11T02:08:39.931Z,0
2017-12-11T02:09:35.816Z,0
2017-12-11T02:10:36.599Z,0
2017-12-11T02:11:36.341Z,0
2017-12-11T02:12:36.319Z,0
2017-12-11T02:13:36.554Z,0
2017-12-11T02:14:35.988Z,0
2017-12-11T02:15:35.709Z,0
2017-12-11T02:16:36.232Z,0
2017-12-11T02:17:36.217Z,0
2017-12-11T02:18:35.937Z,0
2017-12-11T02:19:35.931Z,0
2017-12-11T02:20:35.624Z,0
2017-12-11T02:21:36.424Z,0
2017-12-11T02:22:36.144Z,0
2017-12-11T02:23:36.118Z,0
2017-12-11T02:24:36.386Z,0
2017-12-11T02:25:36.376Z,0
2017-12-11T02:26:35.810Z,0
2017-12-11T02:27:36.072Z,0
2017-12-11T02:28:36.601Z,0
2017-12-11T02:29:35.749Z,0
2017-12-11T02:30:35.740Z,0
2017-12-11T02:31:36.052Z,0
2017-12-11T02:32:36.250Z,0
2017-12-11T02:33:35.692Z,0
2017-12-11T02:34:35.970Z,0
2017-12-11T02:35:35.928Z,0
2017-12-11T02:36:35.659Z,0
2017-12-11T02:37:35.369Z,0
2017-12-11T02:38:35.612Z,0
2017-12-11T02:39:35.327Z,0
2017-12-11T02:40:36.168Z,0
2017-12-11T02:41:35.571Z,0
2017-12-11T02:42:36.098Z,0
2017-12-11T02:43:35.828Z,0
2017-12-11T02:44:35.782Z,0
2017-12-11T02:45:36.138Z,0
2017-12-11T02:46:35.778Z,0
2017-12-11T02:47:35.736Z,0
2017-12-11T02:48:35.997Z,0
2017-12-11T02:49:36.257Z,0
2017-12-11T02:50:35.179Z,0
2017-12-11T02:51:35.404Z,0
2017-12-11T02:52:35.401Z,0
2017-12-11T02:53:35.390Z,0
2017-12-11T02:54:35.090Z,0
2017-12-11T02:55:35.615Z,0
2017-12-11T02:56:35.634Z,0
2017-12-11T02:57:35.582Z,0
2017-12-11T02:58:35.301Z,0
2017-12-11T02:59:35.827Z,0
2017-12-11T03:00:35.266Z,0
2017-12-11T03:01:35.519Z,0
2017-12-11T03:02:34.959Z,0
2017-12-11T03:03:35.756Z,0
2017-12-11T03:04:35.215Z,0
2017-12-11T03:05:35.460Z,0
2017-12-11T03:06:35.710Z,0
2017-12-11T03:07:35.148Z,0
2017-12-11T03:08:35.159Z,0
2017-12-11T03:09:34.852Z,0
2017-12-11T03:10:35.151Z,0
2017-12-11T03:11:35.119Z,0
2017-12-11T03:12:34.799Z,0
2017-12-11T03:13:35.631Z,0
2017-12-11T03:14:34.770Z,0
2017-12-11T03:15:35.045Z,0
2017-12-11T03:16:35.284Z,0
2017-12-11T03:17:34.735Z,0
2017-12-11T03:18:34.982Z,0
2017-12-11T03:19:35.856Z,0
2017-12-11T03:20:35.042Z,0
2017-12-11T03:21:35.230Z,0
2017-12-11T03:22:34.930Z,0
2017-12-11T03:23:35.716Z,0
2017-12-11T03:24:34.903Z,0
2017-12-11T03:25:34.876Z,0
2017-12-11T03:26:35.415Z,0
2017-12-11T03:27:35.407Z,0
2017-12-11T03:28:35.092Z,0
2017-12-11T03:29:35.079Z,0
2017-12-11T03:30:34.824Z,0
2017-12-11T03:31:34.829Z,0
2017-12-11T03:32:35.587Z,0
2017-12-11T03:33:35.302Z,0
2017-12-11T03:34:35.266Z,0
2017-12-11T03:35:34.439Z,0
2017-12-11T03:36:35.000Z,0
2017-12-11T03:37:34.721Z,0
2017-12-11T03:38:34.412Z,0
2017-12-11T03:39:34.929Z,0
2017-12-11T03:40:34.904Z,0
2017-12-11T03:41:34.628Z,0
2017-12-11T03:42:34.336Z,0
2017-12-11T03:43:34.310Z,0
2017-12-11T03:44:34.584Z,0
2017-12-11T03:45:34.819Z,0
2017-12-11T03:46:34.559Z,0
2017-12-11T03:47:34.792Z,0
2017-12-11T03:48:34.501Z,0
2017-12-11T03:49:35.049Z,0
2017-12-11T03:50:34.747Z,0
2017-12-11T03:51:34.182Z,0
2017-12-11T03:52:34.751Z,0
2017-12-11T03:53:34.694Z,0
2017-12-11T03:54:34.407Z,0
2017-12-11T03:55:34.687Z,0
2017-12-11T03:56:34.663Z,0
2017-12-11T03:57:34.947Z,0
2017-12-11T03:58:34.625Z,0
2017-12-11T03:59:34.598Z,0
2017-12-11T04:00:34.041Z,0
2017-12-11T04:01:34.301Z,0
2017-12-11T04:02:34.013Z,0
2017-12-11T04:03:34.536Z,0
2017-12-11T04:04:34.260Z,0
2017-12-11T04:05:34.835Z,0
2017-12-11T04:06:34.227Z,0
2017-12-11T04:07:34.474Z,0
2017-12-11T04:08:34.454Z,0
2017-12-11T04:09:34.170Z,0
2017-12-11T04:10:34.171Z,0
2017-12-11T04:11:34.411Z,0
2017-12-11T04:12:34.132Z,0
2017-12-11T04:13:34.103Z,0
2017-12-11T04:14:34.626Z,0
2017-12-11T04:15:34.625Z,0
2017-12-11T04:16:34.063Z,0
2017-12-11T04:17:34.038Z,0
2017-12-11T04:18:33.772Z,0
2017-12-11T04:19:34.025Z,0
2017-12-11T04:20:34.008Z,0
2017-12-11T04:21:34.521Z,0
2017-12-11T04:22:34.776Z,0
2017-12-11T04:23:34.602Z,0
2017-12-11T04:24:34.198Z,0
2017-12-11T04:25:33.907Z,0
2017-12-11T04:26:33.626Z,0
2017-12-11T04:27:33.632Z,0
2017-12-11T04:28:33.864Z,0
2017-12-11T04:29:34.156Z,0
2017-12-11T04:30:34.110Z,0
2017-12-11T04:31:34.083Z,0
2017-12-11T04:32:33.840Z,0
2017-12-11T04:33:34.059Z,0
2017-12-11T04:34:33.773Z,0
2017-12-11T04:35:33.495Z,0
2017-12-11T04:36:33.999Z,0
2017-12-11T04:37:34.032Z,0
2017-12-11T04:38:33.976Z,0
2017-12-11T04:39:33.710Z,0
2017-12-11T04:40:34.224Z,0
2017-12-11T04:41:33.934Z,0
2017-12-11T04:42:33.634Z,0
2017-12-11T04:43:33.641Z,0
2017-12-11T04:44:33.929Z,0
2017-12-11T04:45:33.887Z,0
2017-12-11T04:46:33.591Z,0
2017-12-11T04:47:33.580Z,0
2017-12-11T04:48:33.814Z,0
2017-12-11T04:49:33.796Z,0
2017-12-11T04:50:33.514Z,0
2017-12-11T04:51:33.506Z,0
2017-12-11T04:52:33.784Z,0
2017-12-11T04:53:33.462Z,0
2017-12-11T04:54:33.179Z,0
2017-12-11T04:55:33.431Z,0
2017-12-11T04:56:33.165Z,0
2017-12-11T04:57:33.672Z,0
2017-12-11T04:58:33.411Z,0
2017-12-11T04:59:33.374Z,0
2017-12-11T05:00:33.354Z,0
2017-12-11T05:01:33.358Z,0
2017-12-11T05:02:33.878Z,0
2017-12-11T05:03:33.032Z,0
2017-12-11T05:04:33.562Z,0
2017-12-11T05:05:33.291Z,0
2017-12-11T05:06:33.536Z,0
2017-12-11T05:07:33.251Z,0
2017-12-11T05:08:33.782Z,0
2017-12-11T05:09:33.219Z,0
2017-12-11T05:10:33.483Z,0
2017-12-11T05:11:33.721Z,0
2017-12-11T05:12:33.429Z,0
2017-12-11T05:13:33.498Z,0
2017-12-11T05:14:33.436Z,0
2017-12-11T05:15:33.656Z,0
2017-12-11T05:16:33.100Z,0
2017-12-11T05:17:33.095Z,0
2017-12-11T05:18:33.628Z,0
2017-12-11T05:19:33.603Z,0
2017-12-11T05:20:33.039Z,0
2017-12-11T05:21:33.026Z,0
2017-12-11T05:22:32.747Z,0
2017-12-11T05:23:32.998Z,0
2017-12-11T05:24:33.259Z,0
2017-12-11T05:25:33.264Z,0
2017-12-11T05:26:33.248Z,0
2017-12-11T05:27:33.483Z,0
2017-12-11T05:28:33.469Z,0
2017-12-11T05:29:33.175Z,0
2017-12-11T05:30:32.887Z,0
2017-12-11T05:31:33.139Z,0
2017-12-11T05:32:33.149Z,0
2017-12-11T05:33:32.849Z,0
2017-12-11T05:34:33.101Z,0
2017-12-11T05:35:32.527Z,0
2017-12-11T05:36:33.071Z,0
2017-12-11T05:37:32.500Z,0
2017-12-11T05:38:32.758Z,0
2017-12-11T05:39:32.468Z,0
2017-12-11T05:40:32.455Z,0
2017-12-11T05:41:32.726Z,0
2017-12-11T05:42:32.701Z,0
2017-12-11T05:43:32.965Z,0
2017-12-11T05:44:32.659Z,0
2017-12-11T05:45:32.660Z,0
2017-12-11T05:46:32.922Z,0
2017-12-11T05:47:32.891Z,0
2017-12-11T05:48:32.881Z,0
2017-12-11T05:49:32.852Z,0
2017-12-11T05:50:32.835Z,0
2017-12-11T05:51:32.850Z,0
2017-12-11T05:52:33.091Z,0
2017-12-11T05:53:32.793Z,0
2017-12-11T05:54:32.779Z,0
2017-12-11T05:55:32.503Z,0
2017-12-11T05:56:32.479Z,0
2017-12-11T05:57:32.738Z,0
2017-12-11T05:58:32.469Z,0
2017-12-11T05:59:32.168Z,0
2017-12-11T06:00:32.409Z,0
2017-12-11T06:01:32.405Z,0
2017-12-11T06:02:32.398Z,0
2017-12-11T06:03:32.393Z,0
2017-12-11T06:04:32.619Z,0
2017-12-11T06:05:32.072Z,0
2017-12-11T06:06:32.333Z,0
2017-12-11T06:07:32.297Z,0
2017-12-11T06:08:32.555Z,0
2017-12-11T06:09:32.540Z,0
2017-12-11T06:10:32.004Z,0
2017-12-11T06:11:32.806Z,0
2017-12-11T06:12:32.223Z,0
2017-12-11T06:13:32.481Z,0
2017-12-11T06:14:32.244Z,0
2017-12-11T06:15:32.177Z,0
2017-12-11T06:16:32.448Z,0
2017-12-11T06:17:31.879Z,0
2017-12-11T06:18:32.399Z,0
2017-12-11T06:19:32.399Z,0
2017-12-11T06:20:32.675Z,0
2017-12-11T06:21:32.418Z,0
2017-12-11T06:22:32.377Z,0
2017-12-11T06:23:31.782Z,0
2017-12-11T06:24:32.038Z,0
2017-12-11T06:25:32.573Z,0
2017-12-11T06:26:32.549Z,0
2017-12-11T06:27:31.988Z,0
2017-12-11T06:28:32.265Z,0
2017-12-11T06:29:31.956Z,0
2017-12-11T06:30:32.216Z,0
2017-12-11T06:31:32.215Z,0
2017-12-11T06:32:31.929Z,0
2017-12-11T06:33:31.891Z,0
2017-12-11T06:34:32.153Z,0
2017-12-11T06:35:32.132Z,0
2017-12-11T06:36:32.117Z,0
2017-12-11T06:37:31.563Z,0
2017-12-11T06:38:32.086Z,0
2017-12-11T06:39:31.528Z,0
2017-12-11T06:40:32.047Z,0
2017-12-11T06:41:32.324Z,0
2017-12-11T06:42:32.040Z,0
2017-12-11T06:43:31.732Z,0
2017-12-11T06:44:31.714Z,0
2017-12-11T06:45:31.967Z,0
2017-12-11T06:46:31.417Z,0
2017-12-11T06:47:31.422Z,0
2017-12-11T06:48:32.193Z,0
2017-12-11T06:49:31.667Z,0
2017-12-11T06:50:31.371Z,0
2017-12-11T06:51:31.619Z,0
2017-12-11T06:52:31.864Z,0
2017-12-11T06:53:32.122Z,0
2017-12-11T06:54:31.288Z,0
2017-12-11T06:55:31.545Z,0
2017-12-11T06:56:31.819Z,0
2017-12-11T06:57:31.506Z,0
2017-12-11T06:58:32.301Z,0
2017-12-11T06:59:31.747Z,5
2017-12-11T07:00:32.010Z,5
2017-12-11T07:01:31.444Z,5
2017-12-11T07:02:31.161Z,5
2017-12-11T07:03:31.685Z,5
2017-12-11T07:04:31.398Z,5
2017-12-11T07:05:31.379Z,5
2017-12-11T07:06:31.094Z,5
2017-12-11T07:07:31.118Z,5
2017-12-11T07:08:31.060Z,5
2017-12-11T07:09:31.602Z,10
2017-12-11T07:10:31.598Z,10
2017-12-11T07:11:31.556Z,10
2017-12-11T07:12:32.088Z,10
2017-12-11T07:13:31.595Z,10
2017-12-11T07:14:30.988Z,10
2017-12-11T07:15:31.222Z,15
2017-12-11T07:16:30.947Z,15
2017-12-11T07:17:31.185Z,15
2017-12-11T07:18:31.478Z,15
2017-12-11T07:19:31.161Z,15
2017-12-11T07:20:31.152Z,15
2017-12-11T07:21:31.144Z,15
2017-12-11T07:22:31.395Z,15
2017-12-11T07:23:30.822Z,15
2017-12-11T07:24:31.373Z,15
2017-12-11T07:25:30.806Z,15
2017-12-11T07:26:30.770Z,15
2017-12-11T07:27:31.032Z,15
2017-12-11T07:28:30.739Z,20
2017-12-11T07:29:31.538Z,20
2017-12-11T07:30:31.263Z,20
2017-12-11T07:31:31.240Z,20
2017-12-11T07:32:30.948Z,20
2017-12-11T07:33:30.929Z,20
2017-12-11T07:34:30.907Z,20
2017-12-11T07:35:31.185Z,25
2017-12-11T07:36:31.158Z,25
2017-12-11T07:37:31.131Z,30
2017-12-11T07:38:31.121Z,30
2017-12-11T07:39:31.102Z,30
2017-12-11T07:40:30.814Z,30
2017-12-11T07:41:31.084Z,35
2017-12-11T07:42:31.323Z,35
2017-12-11T07:43:31.041Z,35
2017-12-11T07:44:30.775Z,35
2017-12-11T07:45:30.731Z,35
2017-12-11T07:46:30.992Z,35
2017-12-11T07:47:30.700Z,30
2017-12-11T07:48:30.418Z,30
2017-12-11T07:49:30.399Z,30
2017-12-11T07:50:31.202Z,30
2017-12-11T07:51:30.636Z,30
2017-12-11T07:52:30.624Z,35
2017-12-11T07:53:30.343Z,35
2017-12-11T07:54:30.615Z,35
2017-12-11T07:55:31.118Z,35
2017-12-11T07:56:30.836Z,40
2017-12-11T07:57:30.815Z,40
2017-12-11T07:58:30.541Z,40
2017-12-11T07:59:31.070Z,40
2017-12-11T08:00:30.226Z,40
2017-12-11T08:01:30.508Z,45
2017-12-11T08:02:31.005Z,45
2017-12-11T08:03:30.727Z,45
2017-12-11T08:04:30.160Z,45
2017-12-11T08:05:30.696Z,45
2017-12-11T08:06:30.400Z,45
2017-12-11T08:07:30.110Z,45
2017-12-11T08:08:30.369Z,45
2017-12-11T08:09:30.622Z,45
2017-12-11T08:10:30.624Z,45
2017-12-11T08:11:30.320Z,45
2017-12-11T08:12:30.029Z,40
2017-12-11T08:13:30.033Z,40
2017-12-11T08:14:30.004Z,35
2017-12-11T08:15:30.029Z,35
2017-12-11T08:16:30.818Z,30
2017-12-11T08:17:30.767Z,30
2017-12-11T08:18:31.023Z,30
2017-12-11T08:19:30.214Z,30
2017-12-11T08:20:30.173Z,30
2017-12-11T08:21:30.161Z,30
2017-12-11T08:22:30.417Z,30
2017-12-11T08:23:29.855Z,30
2017-12-11T08:24:30.110Z,30
2017-12-11T08:25:30.099Z,35
2017-12-11T08:26:30.373Z,35
2017-12-11T08:27:30.063Z,35
2017-12-11T08:28:30.319Z,35
2017-12-11T08:29:29.760Z,35
2017-12-11T08:30:30.565Z,35
2017-12-11T08:31:29.732Z,40
2017-12-11T08:32:29.995Z,40
2017-12-11T08:33:29.716Z,45
2017-12-11T08:34:29.678Z,45
2017-12-11T08:35:30.233Z,45
2017-12-11T08:36:30.191Z,45
2017-12-11T08:37:29.908Z,45
2017-12-11T08:38:30.178Z,45
2017-12-11T08:39:30.140Z,45
2017-12-11T08:40:30.403Z,45
2017-12-11T08:41:29.842Z,45
2017-12-11T08:42:30.377Z,50
2017-12-11T08:43:30.095Z,50
2017-12-11T08:44:30.104Z,50
2017-12-11T08:45:30.060Z,50
2017-12-11T08:46:29.770Z,50
2017-12-11T08:47:30.022Z,55
2017-12-11T08:48:30.007Z,55
2017-12-11T08:49:29.469Z,55
2017-12-11T08:50:29.697Z,55
2017-12-11T08:51:30.230Z,55
2017-12-11T08:52:29.947Z,55
2017-12-11T08:53:29.690Z,55
2017-12-11T08:54:29.654Z,55
2017-12-11T08:55:29.618Z,60
2017-12-11T08:56:29.606Z,60
2017-12-11T08:57:29.640Z,60
2017-12-11T08:58:29.849Z,60
2017-12-11T08:59:30.118Z,60
2017-12-11T09:00:29.814Z,60
2017-12-11T09:01:29.799Z,60
2017-12-11T09:02:29.244Z,55
2017-12-11T09:03:29.784Z,55
2017-12-11T09:04:29.494Z,55
2017-12-11T09:05:30.014Z,55
2017-12-11T09:06:30.006Z,50
2017-12-11T09:07:29.703Z,50
2017-12-11T09:08:29.985Z,55
2017-12-11T09:09:29.428Z,55
2017-12-11T09:10:29.660Z,60
2017-12-11T09:11:29.397Z,60
2017-12-11T09:12:29.356Z,65
2017-12-11T09:13:29.378Z,65
2017-12-11T09:14:29.611Z,65
2017-12-11T09:15:29.642Z,65
2017-12-11T09:16:29.297Z,70
2017-12-11T09:17:29.554Z,65
2017-12-11T09:18:29.814Z,65
2017-12-11T09:19:29.521Z,60
2017-12-11T09:20:29.507Z,60
2017-12-11T09:21:28.943Z,60
2017-12-11T09:22:29.472Z,60
2017-12-11T09:23:30.047Z,60
2017-12-11T09:24:29.181Z,60
2017-12-11T09:25:29.438Z,60
2017-12-11T09:26:28.869Z,60
2017-12-11T09:27:29.410Z,65
2017-12-11T09:28:29.107Z,70
2017-12-11T09:29:29.094Z,75
2017-12-11T09:30:28.809Z,75
2017-12-11T09:31:29.331Z,80
2017-12-11T09:32:29.050Z,85
2017-12-11T09:33:29.592Z,85
2017-12-11T09:34:29.290Z,90
2017-12-11T09:35:29.011Z,90
2017-12-11T09:36:29.260Z,95
2017-12-11T09:37:28.991Z,95
2017-12-11T09:38:28.972Z,100
2017-12-11T09:39:29.234Z,100
2017-12-11T09:40:29.509Z,100
2017-12-11T09:41:28.911Z,95
2017-12-11T09:42:28.901Z,95
2017-12-11T09:43:29.423Z,90
2017-12-11T09:44:28.892Z,90
2017-12-11T09:45:29.402Z,90
2017-12-11T09:46:29.378Z,90
2017-12-11T09:47:29.104Z,95
2017-12-11T09:48:29.351Z,95
2017-12-11T09:49:29.333Z,95
2017-12-11T09:50:29.043Z,95
2017-12-11T09:51:28.786Z,95
2017-12-11T09:52:28.739Z,90
2017-12-11T09:53:28.727Z,90
2017-12-11T09:54:28.985Z,90
2017-12-11T09:55:28.976Z,90
2017-12-11T09:56:29.296Z,85
2017-12-11T09:57:29.216Z,80
2017-12-11T09:58:28.659Z,80
2017-12-11T09:59:28.655Z,75
2017-12-11T10:00:28.628Z,75
2017-12-11T10:01:29.451Z,75
2017-12-11T10:02:28.593Z,80
2017-12-11T10:03:28.586Z,80
2017-12-11T10:04:28.293Z,80
2017-12-11T10:05:28.551Z,80
2017-12-11T10:06:28.825Z,75
2017-12-11T10:07:28.792Z,75
2017-12-11T10:08:28.508Z,75
2017-12-11T10:09:28.502Z,75
2017-12-11T10:10:29.014Z,75
2017-12-11T10:11:28.909Z,75
2017-12-11T10:12:28.724Z,75
2017-12-11T10:13:28.441Z,75
2017-12-11T10:14:28.424Z,75
2017-12-11T10:15:28.670Z,75
2017-12-11T10:16:28.678Z,75
2017-12-11T10:17:28.372Z,70
2017-12-11T10:18:28.358Z,70
2017-12-11T10:19:28.341Z,70
2017-12-11T10:20:28.874Z,75
2017-12-11T10:21:28.854Z,75
2017-12-11T10:22:28.568Z,75
2017-12-11T10:23:28.549Z,75
2017-12-11T10:24:28.284Z,75
2017-12-11T10:25:28.543Z,70
2017-12-11T10:26:28.519Z,70
2017-12-11T10:27:28.489Z,70
2017-12-11T10:28:28.207Z,75
2017-12-11T10:29:28.757Z,75
2017-12-11T10:30:28.177Z,75
2017-12-11T10:31:28.448Z,70
2017-12-11T10:32:28.423Z,70
2017-12-11T10:33:28.157Z,65
2017-12-11T10:34:28.120Z,65
2017-12-11T10:35:28.103Z,70
2017-12-11T10:36:28.636Z,75
2017-12-11T10:37:28.636Z,80
2017-12-11T10:38:28.091Z,80
2017-12-11T10:39:28.316Z,80
2017-12-11T10:40:28.316Z,80
2017-12-11T10:41:28.022Z,80
2017-12-11T10:42:28.001Z,85
2017-12-11T10:43:28.011Z,85
2017-12-11T10:44:27.969Z,90
2017-12-11T10:45:27.981Z,85
2017-12-11T10:46:28.485Z,85
2017-12-11T10:47:28.195Z,90
2017-12-11T10:48:27.906Z,90
2017-12-11T10:49:27.891Z,90
2017-12-11T10:50:28.158Z,90
2017-12-11T10:51:28.421Z,90
2017-12-11T10:52:27.858Z,95
2017-12-11T10:53:27.563Z,100
2017-12-11T10:54:27.821Z,105
2017-12-11T10:55:27.825Z,105
2017-12-11T10:56:27.789Z,105
2017-12-11T10:57:28.050Z,110
2017-12-11T10:58:27.773Z,120
2017-12-11T10:59:28.558Z,125
2017-12-11T11:00:28.002Z,130
2017-12-11T11:01:28.015Z,130
2017-12-11T11:02:28.254Z,140
2017-12-11T11:03:27.703Z,140
2017-12-11T11:04:27.670Z,145
2017-12-11T11:05:27.926Z,155
2017-12-11T11:06:28.212Z,165
2017-12-11T11:07:28.170Z,165
2017-12-11T11:08:27.613Z,160
2017-12-11T11:09:27.597Z,150
2017-12-11T11:10:27.314Z,140
2017-12-11T11:11:27.319Z,125
2017-12-11T11:12:27.841Z,120
2017-12-11T11:13:27.537Z,115
2017-12-11T11:14:27.831Z,115
2017-12-11T11:15:27.521Z,120
2017-12-11T11:16:28.037Z,120
2017-12-11T11:17:27.509Z,120
2017-12-11T11:18:27.473Z,120
2017-12-11T11:19:27.776Z,120
2017-12-11T11:20:27.707Z,120
2017-12-11T11:21:27.466Z,115
2017-12-11T11:22:27.682Z,115
2017-12-11T11:23:27.667Z,115
2017-12-11T11:24:27.715Z,105
2017-12-11T11:25:27.915Z,100
2017-12-11T11:26:27.348Z,95
2017-12-11T11:27:27.880Z,95
2017-12-11T11:28:27.319Z,95
2017-12-11T11:29:27.326Z,100
2017-12-11T11:30:27.305Z,105
2017-12-11T11:31:27.296Z,110
2017-12-11T11:32:27.269Z,110
2017-12-11T11:33:27.519Z,110
2017-12-11T11:34:27.508Z,105
2017-12-11T11:35:27.239Z,105
2017-12-11T11:36:27.771Z,105
2017-12-11T11:37:27.860Z,100
2017-12-11T11:38:27.450Z,100
2017-12-11T11:39:27.163Z,100
2017-12-11T11:40:27.149Z,105
2017-12-11T11:41:27.410Z,110
2017-12-11T11:42:27.114Z,120
2017-12-11T11:43:26.834Z,125
2017-12-11T11:44:27.368Z,125
2017-12-11T11:45:27.130Z,120
2017-12-11T11:46:27.603Z,115
2017-12-11T11:47:27.315Z,115
2017-12-11T11:48:26.773Z,120
2017-12-11T11:49:27.305Z,130
2017-12-11T11:50:27.000Z,130
2017-12-11T11:51:26.992Z,130
2017-12-11T11:52:26.975Z,130
2017-12-11T11:53:27.238Z,135
2017-12-11T11:54:27.214Z,135
2017-12-11T11:55:27.198Z,135
2017-12-11T11:56:26.917Z,135
2017-12-11T11:57:26.634Z,140
2017-12-11T11:58:27.153Z,130
2017-12-11T11:59:26.909Z,125
2017-12-11T12:00:27.130Z,125
2017-12-11T12:01:26.852Z,135
2017-12-11T12:02:26.829Z,140
2017-12-11T12:03:26.834Z,150
2017-12-11T12:04:27.084Z,160
2017-12-11T12:05:26.541Z,160
2017-12-11T12:06:27.061Z,155
2017-12-11T12:07:26.911Z,140
2017-12-11T12:08:27.023Z,125
2017-12-11T12:09:27.276Z,115
2017-12-11T12:10:26.734Z,120
2017-12-11T12:11:26.986Z,125
2017-12-11T12:12:27.236Z,130
2017-12-11T12:13:26.962Z,130
2017-12-11T12:14:26.936Z,135
2017-12-11T12:15:26.926Z,140
2017-12-11T12:16:26.367Z,140
2017-12-11T12:17:26.367Z,140
2017-12-11T12:18:26.889Z,140
2017-12-11T12:19:26.601Z,140
2017-12-11T12:20:26.578Z,135
2017-12-11T12:21:26.831Z,130
2017-12-11T12:22:26.582Z,130
2017-12-11T12:23:26.283Z,135
2017-12-11T12:24:26.794Z,135
2017-12-11T12:25:26.509Z,140
2017-12-11T12:26:26.248Z,150
2017-12-11T12:27:26.487Z,150
2017-12-11T12:28:26.756Z,155
2017-12-11T12:29:26.457Z,155
2017-12-11T12:30:26.457Z,150
2017-12-11T12:31:26.704Z,150
2017-12-11T12:32:26.694Z,150
2017-12-11T12:33:26.672Z,150
2017-12-11T12:34:26.386Z,140
2017-12-11T12:35:26.656Z,130
2017-12-11T12:36:26.655Z,125
2017-12-11T12:37:26.610Z,125
2017-12-11T12:38:26.331Z,130
2017-12-11T12:39:26.048Z,125
2017-12-11T12:40:26.883Z,120
2017-12-11T12:41:26.580Z,115
2017-12-11T12:42:26.835Z,120
2017-12-11T12:43:26.544Z,120
2017-12-11T12:44:25.986Z,125
2017-12-11T12:45:26.511Z,125
2017-12-11T12:46:25.950Z,120
2017-12-11T12:47:26.484Z,110
2017-12-11T12:48:26.198Z,105
2017-12-11T12:49:26.211Z,105
2017-12-11T12:50:26.450Z,100
2017-12-11T12:51:26.473Z,100
2017-12-11T12:52:26.407Z,105
2017-12-11T12:53:25.852Z,105
2017-12-11T12:54:26.141Z,110
2017-12-11T12:55:26.640Z,110
2017-12-11T12:56:26.101Z,105
2017-12-11T12:57:26.350Z,100
2017-12-11T12:58:26.062Z,100
2017-12-11T12:59:26.642Z,110
2017-12-11T13:00:26.298Z,115
2017-12-11T13:01:26.013Z,110
2017-12-11T13:02:25.731Z,110
2017-12-11T13:03:26.008Z,105
2017-12-11T13:04:26.261Z,100
2017-12-11T13:05:26.240Z,95
2017-12-11T13:06:25.951Z,95
2017-12-11T13:07:25.935Z,95
2017-12-11T13:08:25.651Z,90
2017-12-11T13:09:26.449Z,85
2017-12-11T13:10:25.895Z,85
2017-12-11T13:11:26.461Z,80
2017-12-11T13:12:25.615Z,80
2017-12-11T13:13:25.855Z,80
2017-12-11T13:14:26.114Z,80
2017-12-11T13:15:25.847Z,80
2017-12-11T13:16:25.812Z,75
2017-12-11T13:17:26.090Z,75
2017-12-11T13:18:26.069Z,75
2017-12-11T13:19:26.055Z,70
2017-12-11T13:20:26.037Z,70
2017-12-11T13:21:26.301Z,70
2017-12-11T13:22:25.487Z,70
2017-12-11T13:23:25.714Z,65
2017-12-11T13:24:26.257Z,65
2017-12-11T13:25:25.960Z,60
2017-12-11T13:26:25.671Z,60
2017-12-11T13:27:25.666Z,60
2017-12-11T13:28:25.926Z,60
2017-12-11T13:29:25.846Z,60
2017-12-11T13:30:26.185Z,60
2017-12-11T13:31:25.878Z,55
2017-12-11T13:32:25.869Z,55
2017-12-11T13:33:26.129Z,55
2017-12-11T13:34:26.109Z,55
2017-12-11T13:35:25.549Z,55
2017-12-11T13:36:25.548Z,55
2017-12-11T13:37:25.822Z,55
2017-12-11T13:38:25.513Z,55
2017-12-11T13:39:25.772Z,55
2017-12-11T13:40:26.030Z,50
2017-12-11T13:41:25.740Z,50
2017-12-11T13:42:25.729Z,45
2017-12-11T13:43:25.990Z,40
2017-12-11T13:44:25.724Z,40
2017-12-11T13:45:25.695Z,40
2017-12-11T13:46:25.420Z,40
2017-12-11T13:47:25.936Z,35
2017-12-11T13:48:25.953Z,35
2017-12-11T13:49:25.366Z,35
2017-12-11T13:50:25.352Z,35
2017-12-11T13:51:25.708Z,35
2017-12-11T13:52:25.602Z,35
2017-12-11T13:53:25.486Z,35
2017-12-11T13:54:25.295Z,35
2017-12-11T13:55:25.276Z,35
2017-12-11T13:56:26.033Z,30
2017-12-11T13:57:25.078Z,30
2017-12-11T13:58:25.824Z,30
2017-12-11T13:59:24.956Z,30
2017-12-11T14:00:25.481Z,30
2017-12-11T14:01:25.195Z,30
2017-12-11T14:02:25.754Z,30
2017-12-11T14:03:24.917Z,25
2017-12-11T14:04:25.192Z,25
2017-12-11T14:05:25.713Z,25
2017-12-11T14:06:25.675Z,25
2017-12-11T14:07:25.144Z,25
2017-12-11T14:08:24.847Z,20
2017-12-11T14:09:24.834Z,20
2017-12-11T14:10:25.183Z,25
2017-12-11T14:11:24.792Z,25
2017-12-11T14:12:25.128Z,25
2017-12-11T14:13:24.764Z,20
2017-12-11T14:14:24.747Z,20
2017-12-11T14:15:25.009Z,20
2017-12-11T14:16:25.002Z,20
2017-12-11T14:17:25.522Z,20
2017-12-11T14:18:24.745Z,15
2017-12-11T14:19:25.519Z,15
2017-12-11T14:20:25.205Z,15
2017-12-11T14:21:24.939Z,15
2017-12-11T14:22:24.927Z,15
2017-12-11T14:23:24.894Z,15
2017-12-11T14:24:24.608Z,15
2017-12-11T14:25:25.142Z,15
2017-12-11T14:26:24.575Z,15